Time;durP1;ratioP1;P1;durP2;ratioP2;P2;SDS_P1;SDS_P2;PMS_P1;PMS_P2;Temp;Humidity;BMP_temperature;BMP_pressure;BME280_temperature;BME280_humidity;BME280_pressure;Samples;Min_cycle;Max_cycle;Signal;HPM_P1;HPM_P2
2022/12/24 00:02:04;;;;;;;50.72;16.95;;;5.80;99.90;;;;;;5102996;28;20106;-72
2022/12/24 00:04:31;;;;;;;48.45;18.52;;;5.80;99.90;;;;;;5102520;28;20118;-72
2022/12/24 00:06:57;;;;;;;49.35;17.42;;;5.80;99.90;;;;;;5087993;28;20024;-72
2022/12/24 00:09:23;;;;;;;49.75;16.27;;;5.80;99.90;;;;;;5087055;28;20039;-73
2022/12/24 00:11:49;;;;;;;49.20;17.48;;;5.80;99.90;;;;;;5073023;28;20096;-72
2022/12/24 00:14:14;;;;;;;1756.88;649.75;;;5.90;99.90;;;;;;5114190;28;20036;-73
2022/12/24 00:16:40;;;;;;;1159.43;456.80;;;6.00;99.90;;;;;;5092469;28;20024;-73
2022/12/24 00:19:09;;;;;;;158.95;80.45;;;6.00;99.90;;;;;;5092633;28;20031;-73
2022/12/24 00:21:35;;;;;;;465.13;314.92;;;5.90;99.90;;;;;;5068873;28;20039;-73
2022/12/24 00:24:03;;;;;;;84.43;46.22;;;5.90;99.90;;;;;;5104795;28;20027;-73
2022/12/24 00:26:28;;;;;;;54.90;20.05;;;5.90;99.90;;;;;;5070548;28;20476;-73
2022/12/24 00:28:54;;;;;;;59.38;17.85;;;6.20;99.90;;;;;;5086000;28;20072;-73
2022/12/24 00:31:23;;;;;;;45.10;16.80;;;6.00;99.90;;;;;;5085289;28;20028;-73
2022/12/24 00:33:49;;;;;;;47.70;17.40;;;6.00;99.90;;;;;;5090923;28;20031;-73
2022/12/24 00:36:16;;;;;;;51.25;17.05;;;5.90;99.90;;;;;;5108409;28;20020;-73
2022/12/24 00:38:43;;;;;;;46.80;16.67;;;5.90;99.90;;;;;;5073376;28;20752;-73
2022/12/24 00:41:23;;;;;;;43.88;16.85;;;5.90;99.90;;;;;;5093941;28;20027;-73
2022/12/24 00:44:10;;;;;;;44.00;17.38;;;5.90;99.90;;;;;;5100786;28;20051;-74
2022/12/24 00:46:39;;;;;;;44.72;16.75;;;5.90;99.90;;;;;;5092081;28;20036;-73
2022/12/24 00:49:06;;;;;;;52.13;17.08;;;5.90;99.90;;;;;;5088908;28;20042;-73
2022/12/24 00:51:33;;;;;;;51.03;17.67;;;5.90;99.90;;;;;;5107032;28;20023;-73
2022/12/24 00:53:58;;;;;;;45.25;16.83;;;5.90;99.90;;;;;;5071909;28;20058;-73
2022/12/24 00:56:24;;;;;;;48.42;17.35;;;5.70;99.90;;;;;;5108890;28;20503;-74
2022/12/24 00:58:51;;;;;;;49.85;16.88;;;5.70;99.90;;;;;;5090654;28;20024;-73
2022/12/24 01:01:17;;;;;;;49.55;16.38;;;5.70;99.90;;;;;;5088747;28;20091;-73
2022/12/24 01:03:43;;;;;;;41.03;15.23;;;5.60;99.90;;;;;;5090422;28;20065;-73
2022/12/24 01:06:14;;;;;;;40.72;15.25;;;5.70;99.90;;;;;;5072761;28;20028;-73
2022/12/24 01:08:40;;;;;;;49.03;17.13;;;5.70;99.90;;;;;;5069694;28;20127;-73
2022/12/24 01:11:08;;;;;;;51.53;18.15;;;5.70;99.90;;;;;;5089405;28;20481;-73
2022/12/24 01:13:33;;;;;;;53.95;16.77;;;5.70;99.90;;;;;;5088797;28;20040;-73
2022/12/24 01:15:59;;;;;;;54.47;17.45;;;5.70;99.90;;;;;;5089468;28;20043;-72
2022/12/24 01:18:25;;;;;;;50.20;18.17;;;5.60;99.90;;;;;;5085803;28;21331;-73
2022/12/24 01:20:59;;;;;;;52.47;17.17;;;5.60;99.90;;;;;;5088082;28;20028;-73
2022/12/24 01:23:26;;;;;;;56.13;17.90;;;5.60;99.90;;;;;;5101541;28;20411;-73
2022/12/24 01:25:52;;;;;;;55.33;17.27;;;5.70;99.90;;;;;;5088806;28;20111;-71
2022/12/24 01:28:20;;;;;;;52.50;17.42;;;5.70;99.90;;;;;;5104555;28;20618;-73
2022/12/24 01:30:47;;;;;;;52.88;16.70;;;5.70;99.90;;;;;;5106939;28;20055;-73
2022/12/24 01:33:13;;;;;;;47.15;15.30;;;5.70;99.90;;;;;;5085413;28;20096;-73
2022/12/24 01:35:40;;;;;;;44.92;16.45;;;5.70;99.90;;;;;;5090172;28;20089;-73
2022/12/24 01:38:05;;;;;;;48.03;16.55;;;5.60;99.90;;;;;;5069699;28;20032;-72
2022/12/24 01:43:24;;;;;;;50.67;16.10;;;5.70;99.90;;;;;;5104552;28;20043;-72
2022/12/24 01:46:02;;;;;;;55.35;17.50;;;5.70;99.90;;;;;;5105389;28;20028;-72
2022/12/24 01:48:34;;;;;;;57.08;16.42;;;5.60;99.90;;;;;;5070369;28;20024;-73
2022/12/24 01:51:28;;;;;;;51.63;17.10;;;5.60;99.90;;;;;;5106330;28;20027;-73
2022/12/24 01:54:00;;;;;;;51.63;16.27;;;5.60;99.90;;;;;;5098671;28;20071;-72
2022/12/24 01:56:28;;;;;;;50.53;16.60;;;5.70;99.90;;;;;;5086162;28;20096;-71
2022/12/24 01:58:58;;;;;;;50.25;16.17;;;5.60;99.90;;;;;;5087154;28;20031;-72
2022/12/24 02:01:24;;;;;;;47.90;17.05;;;5.60;99.90;;;;;;5106227;28;20144;-72
2022/12/24 02:03:49;;;;;;;54.60;17.17;;;5.60;99.90;;;;;;5106387;27;20065;-71
2022/12/24 02:06:17;;;;;;;49.85;16.95;;;5.70;99.90;;;;;;5087612;28;20035;-73
2022/12/24 02:08:43;;;;;;;45.90;16.30;;;5.60;99.90;;;;;;5106864;28;20027;-73
2022/12/24 02:11:15;;;;;;;52.05;16.58;;;5.60;99.90;;;;;;5087794;28;20024;-72
2022/12/24 02:13:45;;;;;;;50.78;17.02;;;5.60;99.90;;;;;;5072198;28;20031;-72
2022/12/24 02:16:37;;;;;;;53.63;17.50;;;5.60;99.90;;;;;;5084105;28;20506;-72
2022/12/24 02:19:40;;;;;;;48.50;16.48;;;5.70;99.90;;;;;;5088916;28;20407;-72
2022/12/24 02:22:14;;;;;;;45.70;15.93;;;5.70;99.90;;;;;;5072243;28;20032;-72
2022/12/24 02:25:01;;;;;;;49.30;17.45;;;5.60;99.90;;;;;;5095854;28;20138;-72
2022/12/24 02:27:49;;;;;;;52.88;16.63;;;5.70;99.90;;;;;;5089924;28;20708;-72
2022/12/24 02:30:47;;;;;;;44.97;15.40;;;5.70;99.90;;;;;;5084937;28;20030;-72
2022/12/24 02:33:23;;;;;;;49.55;16.65;;;5.70;99.90;;;;;;5065962;28;20177;-73
2022/12/24 02:36:10;;;;;;;51.42;16.90;;;5.70;99.90;;;;;;5106217;28;20027;-72
2022/12/24 02:39:09;;;;;;;46.55;15.80;;;5.70;99.90;;;;;;5103548;28;20051;-72
2022/12/24 02:44:29;;;;;;;44.30;16.33;;;5.70;99.90;;;;;;5105155;28;20039;-72
2022/12/24 02:46:57;;;;;;;49.58;16.33;;;5.70;99.90;;;;;;5103463;28;20039;-72
2022/12/24 02:49:24;;;;;;;52.33;17.85;;;5.70;99.90;;;;;;5066747;28;20024;-72
2022/12/24 02:51:50;;;;;;;41.22;15.07;;;5.70;99.90;;;;;;5071578;28;20027;-72
2022/12/24 02:54:16;;;;;;;42.67;16.35;;;5.70;99.90;;;;;;5099308;28;20111;-73
2022/12/24 02:57:27;;;;;;;48.70;15.93;;;5.70;99.90;;;;;;5082519;28;20069;-73
2022/12/24 03:00:13;;;;;;;49.15;16.90;;;5.70;99.90;;;;;;5083762;28;20063;-72
2022/12/24 03:03:02;;;;;;;39.50;14.43;;;5.70;99.90;;;;;;5104310;28;20112;-73
2022/12/24 03:05:54;;;;;;;35.50;13.82;;;5.60;99.90;;;;;;5085768;28;20095;-73
2022/12/24 03:08:43;;;;;;;42.92;15.02;;;5.60;99.90;;;;;;5102599;28;20053;-72
2022/12/24 03:11:13;;;;;;;43.60;14.75;;;5.60;99.90;;;;;;5102855;28;20361;-72
2022/12/24 03:13:40;;;;;;;48.67;16.25;;;5.70;99.90;;;;;;5105321;28;20034;-73
2022/12/24 03:16:15;;;;;;;44.95;15.15;;;5.60;99.90;;;;;;5105664;28;20383;-72
2022/12/24 03:18:45;;;;;;;38.00;14.55;;;5.60;99.90;;;;;;5070649;28;20034;-73
2022/12/24 03:21:17;;;;;;;36.55;14.15;;;5.60;99.90;;;;;;5104352;28;20028;-72
2022/12/24 03:23:43;;;;;;;50.28;15.05;;;5.70;99.90;;;;;;5105005;28;20053;-72
2022/12/24 03:26:13;;;;;;;41.20;14.13;;;5.60;99.90;;;;;;5086518;28;20441;-73
2022/12/24 03:28:40;;;;;;;40.20;14.68;;;5.70;99.90;;;;;;5068782;28;20567;-73
2022/12/24 03:31:07;;;;;;;45.78;15.10;;;5.70;99.90;;;;;;5088261;28;20096;-72
2022/12/24 03:33:33;;;;;;;38.35;14.57;;;5.60;99.90;;;;;;5086202;28;20027;-72
2022/12/24 03:35:59;;;;;;;41.58;15.02;;;5.70;99.90;;;;;;5105126;28;20509;-72
2022/12/24 03:38:25;;;;;;;44.67;15.55;;;5.70;99.90;;;;;;5086694;28;20038;-73
2022/12/24 03:40:51;;;;;;;42.50;15.60;;;5.70;99.90;;;;;;5102757;28;20028;-72
2022/12/24 03:43:17;;;;;;;35.80;13.25;;;5.60;99.90;;;;;;5083903;28;20043;-72
2022/12/24 03:45:43;;;;;;;45.63;15.27;;;5.60;99.90;;;;;;5086323;28;20024;-72
2022/12/24 03:48:08;;;;;;;40.78;13.93;;;5.60;99.90;;;;;;5107620;28;20031;-72
2022/12/24 03:50:34;;;;;;;39.42;13.88;;;5.60;99.90;;;;;;5088458;28;20027;-73
2022/12/24 03:53:00;;;;;;;35.35;13.18;;;5.60;99.90;;;;;;5109226;28;20055;-71
2022/12/24 03:55:25;;;;;;;43.42;14.45;;;5.60;99.90;;;;;;5109395;28;20020;-72
2022/12/24 03:57:51;;;;;;;40.63;14.65;;;5.60;99.90;;;;;;5087728;28;20027;-72
2022/12/24 04:00:17;;;;;;;37.78;12.93;;;5.60;99.90;;;;;;5107690;28;20036;-73
2022/12/24 04:02:43;;;;;;;39.92;14.57;;;5.60;99.90;;;;;;5111526;28;20482;-72
2022/12/24 04:05:13;;;;;;;39.40;13.55;;;5.60;99.90;;;;;;5107614;28;20035;-72
2022/12/24 04:07:39;;;;;;;38.75;14.45;;;5.60;99.90;;;;;;5088443;28;20504;-72
2022/12/24 04:10:05;;;;;;;41.78;13.70;;;5.60;99.90;;;;;;5108474;28;20032;-72
2022/12/24 04:12:31;;;;;;;39.00;14.25;;;5.60;99.90;;;;;;5106228;28;20085;-72
2022/12/24 04:14:58;;;;;;;40.60;14.80;;;5.60;99.90;;;;;;5089776;28;20390;-72
2022/12/24 04:17:23;;;;;;;32.80;12.68;;;5.60;99.90;;;;;;5068664;28;20023;-72
2022/12/24 04:19:49;;;;;;;43.10;13.85;;;5.60;99.90;;;;;;5089604;28;20030;-72
2022/12/24 04:22:15;;;;;;;33.95;12.70;;;5.60;99.90;;;;;;5091399;28;20118;-72
2022/12/24 04:24:40;;;;;;;42.30;14.77;;;5.60;99.90;;;;;;5091022;28;20088;-72
2022/12/24 04:27:06;;;;;;;35.75;13.57;;;5.60;99.90;;;;;;5104644;28;20102;-72
2022/12/24 04:29:32;;;;;;;36.33;13.73;;;5.60;99.90;;;;;;5088622;28;20031;-72
2022/12/24 04:31:58;;;;;;;36.70;13.60;;;5.60;99.90;;;;;;5108644;27;20024;-72
2022/12/24 04:34:23;;;;;;;37.83;13.10;;;5.60;99.90;;;;;;5109419;28;20543;-72
2022/12/24 04:36:49;;;;;;;35.72;13.13;;;5.60;99.90;;;;;;5068514;28;20050;-71
2022/12/24 04:39:15;;;;;;;35.30;12.65;;;5.60;99.90;;;;;;5087859;28;20032;-71
2022/12/24 04:41:40;;;;;;;41.50;13.05;;;5.60;99.90;;;;;;5092248;28;20035;-72
2022/12/24 04:44:08;;;;;;;33.50;12.45;;;5.60;99.90;;;;;;5114610;28;20364;-72
2022/12/24 04:46:34;;;;;;;33.92;13.77;;;5.60;99.90;;;;;;5112715;28;20103;-72
2022/12/24 04:49:00;;;;;;;32.75;11.45;;;5.60;99.90;;;;;;5108936;28;20410;-71
2022/12/24 04:51:27;;;;;;;33.17;12.25;;;5.60;99.90;;;;;;5107029;28;20024;-71
2022/12/24 04:53:54;;;;;;;28.23;11.10;;;5.60;99.90;;;;;;5092155;28;20412;-71
2022/12/24 04:56:23;;;;;;;29.35;10.93;;;5.60;99.90;;;;;;5090004;28;20038;-72
2022/12/24 04:58:50;;;;;;;36.15;12.27;;;5.60;99.90;;;;;;5109425;28;20118;-72
2022/12/24 05:01:24;;;;;;;35.47;11.38;;;5.60;99.90;;;;;;5103528;28;20096;-70
2022/12/24 05:03:51;;;;;;;32.38;11.90;;;5.60;99.90;;;;;;5085566;28;20028;-72
2022/12/24 05:06:22;;;;;;;32.08;12.00;;;5.60;99.90;;;;;;5108640;28;20039;-73
2022/12/24 05:08:48;;;;;;;35.92;11.38;;;5.60;99.90;;;;;;5106922;28;20475;-72
2022/12/24 05:11:15;;;;;;;34.75;11.82;;;5.50;99.90;;;;;;5087475;28;20053;-73
2022/12/24 05:13:42;;;;;;;37.47;13.60;;;5.50;99.90;;;;;;5070873;28;20408;-72
2022/12/24 05:16:09;;;;;;;30.58;11.07;;;5.50;99.90;;;;;;5107669;28;20081;-72
2022/12/24 05:18:35;;;;;;;31.30;11.20;;;5.50;99.90;;;;;;5106702;27;20035;-72
2022/12/24 05:21:01;;;;;;;32.17;11.82;;;5.50;99.90;;;;;;5106442;27;20024;-72
2022/12/24 05:26:34;;;;;;;37.10;13.30;;;5.50;99.90;;;;;;5084878;28;20554;-72
2022/12/24 05:29:01;;;;;;;33.72;11.73;;;5.50;99.90;;;;;;5085745;28;20067;-73
2022/12/24 05:31:29;;;;;;;32.28;12.00;;;5.50;99.90;;;;;;5087677;28;20126;-73
2022/12/24 05:33:55;;;;;;;32.65;11.18;;;5.50;99.90;;;;;;5088029;28;20501;-73
2022/12/24 05:36:22;;;;;;;29.67;11.10;;;5.50;99.90;;;;;;5105499;28;20383;-72
2022/12/24 05:38:48;;;;;;;28.65;11.07;;;5.60;99.90;;;;;;5072122;28;20032;-73
2022/12/24 05:41:14;;;;;;;28.98;12.10;;;5.50;99.90;;;;;;5087272;28;20027;-73
2022/12/24 05:43:40;;;;;;;34.05;11.55;;;5.50;99.90;;;;;;5090304;28;20023;-72
2022/12/24 05:46:08;;;;;;;33.05;12.63;;;5.60;99.90;;;;;;5092143;27;20977;-73
2022/12/24 05:48:35;;;;;;;26.23;11.70;;;5.50;99.90;;;;;;5071641;28;20038;-72
2022/12/24 05:51:06;;;;;;;30.15;12.27;;;5.50;99.90;;;;;;5101126;28;20091;-72
2022/12/24 05:53:33;;;;;;;31.45;11.88;;;5.50;99.90;;;;;;5072392;28;20020;-73
2022/12/24 05:56:10;;;;;;;28.52;10.65;;;5.60;99.90;;;;;;5086005;28;20050;-72
2022/12/24 05:58:38;;;;;;;30.90;12.38;;;5.60;99.90;;;;;;5104286;28;20028;-73
2022/12/24 06:01:04;;;;;;;33.88;12.18;;;5.50;99.90;;;;;;5101280;28;20513;-73
2022/12/24 06:03:31;;;;;;;27.77;10.73;;;5.50;99.90;;;;;;5106102;28;20027;-72
2022/12/24 06:06:04;;;;;;;28.63;11.38;;;5.50;99.90;;;;;;5085150;28;20076;-72
2022/12/24 06:08:31;;;;;;;32.58;11.75;;;5.50;99.90;;;;;;5105617;28;20039;-73
2022/12/24 06:11:02;;;;;;;32.08;11.50;;;5.50;99.90;;;;;;5083991;28;20015;-73
2022/12/24 06:13:28;;;;;;;;;;;5.50;99.90;;;;;;5070523;28;20114;-73
2022/12/24 06:15:55;;;;;;;33.47;11.35;;;5.50;99.90;;;;;;5104814;28;20006;-73
2022/12/24 06:18:21;;;;;;;26.98;10.45;;;5.50;99.90;;;;;;5105570;28;20032;-74
2022/12/24 06:20:50;;;;;;;30.63;11.68;;;5.50;99.90;;;;;;5106091;28;20031;-73
2022/12/24 06:23:16;;;;;;;35.60;11.57;;;5.50;99.90;;;;;;5086659;28;20032;-72
2022/12/24 06:25:42;;;;;;;27.20;10.93;;;5.50;99.90;;;;;;5084325;28;20478;-73
2022/12/24 06:28:08;;;;;;;28.67;11.30;;;5.50;99.90;;;;;;5087368;28;20034;-72
2022/12/24 06:30:33;;;;;;;27.40;11.30;;;5.50;99.90;;;;;;5106836;28;20030;-73
2022/12/24 06:32:59;;;;;;;24.42;10.63;;;5.50;99.90;;;;;;5091724;28;20031;-72
2022/12/24 06:35:25;;;;;;;29.30;11.52;;;5.50;99.90;;;;;;5086516;28;20556;-73
2022/12/24 06:37:50;;;;;;;31.05;12.00;;;5.50;99.90;;;;;;5102032;28;20024;-73
2022/12/24 06:40:16;;;;;;;25.65;10.43;;;5.50;99.90;;;;;;5086815;28;20376;-73
2022/12/24 06:42:42;;;;;;;25.92;10.82;;;5.50;99.90;;;;;;5106671;28;20112;-73
2022/12/24 06:45:08;;;;;;;30.30;11.13;;;5.50;99.90;;;;;;5092218;28;20023;-73
2022/12/24 06:47:34;;;;;;;23.85;9.50;;;5.50;99.90;;;;;;5110581;28;20107;-73
2022/12/24 06:50:00;;;;;;;28.08;11.20;;;5.50;99.90;;;;;;5115987;28;20042;-73
2022/12/24 06:52:25;;;;;;;25.58;10.32;;;5.50;99.90;;;;;;5110128;28;20494;-73
2022/12/24 06:54:51;;;;;;;28.70;10.23;;;5.50;99.90;;;;;;5085514;28;20016;-73
2022/12/24 06:57:17;;;;;;;26.52;10.02;;;5.50;99.90;;;;;;5082424;28;20036;-73
2022/12/24 06:59:42;;;;;;;22.55;9.82;;;5.50;99.90;;;;;;5084349;28;20034;-73
2022/12/24 07:02:09;;;;;;;23.23;9.57;;;5.50;99.90;;;;;;5106242;28;20110;-73
2022/12/24 07:04:34;;;;;;;23.80;10.45;;;5.50;99.90;;;;;;5087940;28;20035;-71
2022/12/24 07:07:00;;;;;;;27.15;9.60;;;5.40;99.90;;;;;;5085283;28;20020;-72
2022/12/24 07:09:26;;;;;;;26.15;10.10;;;5.40;99.90;;;;;;5096914;28;20273;-72
2022/12/24 07:11:52;;;;;;;26.40;10.50;;;5.50;99.90;;;;;;5107081;28;20023;-72
2022/12/24 07:14:17;;;;;;;21.92;9.32;;;5.40;99.90;;;;;;5104505;28;20027;-72
2022/12/24 07:16:43;;;;;;;25.23;9.30;;;5.40;99.90;;;;;;5105038;28;20042;-72
2022/12/24 07:19:09;;;;;;;19.02;8.80;;;5.50;99.90;;;;;;5103958;28;20031;-72
2022/12/24 07:21:34;;;;;;;26.02;10.20;;;5.50;99.90;;;;;;5071751;28;20038;-72
2022/12/24 07:24:01;;;;;;;23.55;9.35;;;5.40;99.90;;;;;;5095322;28;20023;-72
2022/12/24 07:26:28;;;;;;;23.52;9.25;;;5.50;99.90;;;;;;5094094;28;20106;-73
2022/12/24 07:28:54;;;;;;;24.83;9.10;;;5.50;99.90;;;;;;5072959;28;20035;-72
2022/12/24 07:31:19;;;;;;;23.23;9.77;;;5.50;99.90;;;;;;5091027;28;20506;-72
2022/12/24 07:33:45;;;;;;;21.02;8.35;;;5.50;99.90;;;;;;5111080;28;20088;-73
2022/12/24 07:36:19;;;;;;;22.15;9.45;;;5.50;99.90;;;;;;5108938;28;20027;-72
2022/12/24 07:38:45;;;;;;;19.05;8.07;;;5.50;99.90;;;;;;5091176;28;20094;-72
2022/12/24 07:41:11;;;;;;;17.80;8.52;;;5.50;99.90;;;;;;5075667;28;20472;-72
2022/12/24 07:43:37;;;;;;;22.63;8.70;;;5.50;99.90;;;;;;5089560;28;20126;-72
2022/12/24 07:46:03;;;;;;;18.33;7.88;;;5.50;99.90;;;;;;5110459;28;20065;-73
2022/12/24 07:48:30;;;;;;;21.92;8.70;;;5.50;99.90;;;;;;5102734;27;20043;-72
2022/12/24 07:50:56;;;;;;;19.63;8.43;;;5.50;99.90;;;;;;5090125;28;20160;-72
2022/12/24 07:53:22;;;;;;;17.73;8.02;;;5.50;99.90;;;;;;5110621;28;20483;-72
2022/12/24 07:55:48;;;;;;;20.90;8.52;;;5.50;99.90;;;;;;5090782;28;20081;-72
2022/12/24 07:58:14;;;;;;;15.82;7.40;;;5.50;99.90;;;;;;5090551;28;20038;-72
2022/12/24 08:00:40;;;;;;;18.48;8.55;;;5.50;99.90;;;;;;5091717;28;20110;-72
2022/12/24 08:03:05;;;;;;;15.75;7.68;;;5.50;99.90;;;;;;5091556;28;20570;-75
2022/12/24 08:05:35;;;;;;;18.90;8.43;;;5.50;99.90;;;;;;5087254;28;20026;-72
2022/12/24 08:08:01;;;;;;;16.83;7.75;;;5.50;99.90;;;;;;5087914;28;20279;-73
2022/12/24 08:10:27;;;;;;;16.48;7.05;;;5.50;99.90;;;;;;5110483;28;20422;-73
2022/12/24 08:12:52;;;;;;;14.75;7.05;;;5.50;99.90;;;;;;5111914;28;20024;-73
2022/12/24 08:15:19;;;;;;;14.13;7.18;;;5.50;99.90;;;;;;5091514;28;20026;-72
2022/12/24 08:17:44;;;;;;;18.35;8.52;;;5.50;99.90;;;;;;5088766;28;20028;-72
2022/12/24 08:20:11;;;;;;;14.70;7.43;;;5.50;99.90;;;;;;5090410;28;20088;-73
2022/12/24 08:22:36;;;;;;;18.33;8.15;;;5.50;99.90;;;;;;5088028;28;20019;-72
2022/12/24 08:25:02;;;;;;;13.15;7.00;;;5.50;99.90;;;;;;5071735;28;20413;-72
2022/12/24 08:27:31;;;;;;;15.02;7.15;;;5.50;99.90;;;;;;5090307;28;20103;-73
2022/12/24 08:29:57;;;;;;;16.60;7.32;;;5.60;99.90;;;;;;5105909;28;20059;-73
2022/12/24 08:32:22;;;;;;;16.88;7.57;;;5.50;99.90;;;;;;5109359;28;20051;-73
2022/12/24 08:34:48;;;;;;;13.07;7.20;;;5.60;99.90;;;;;;5088916;28;20015;-73
2022/12/24 08:37:14;;;;;;;13.02;7.28;;;5.50;99.90;;;;;;5108058;28;20032;-73
2022/12/24 08:39:40;;;;;;;17.50;8.68;;;5.50;99.90;;;;;;5098801;27;20028;-73
2022/12/24 08:42:08;;;;;;;14.48;7.10;;;5.50;99.90;;;;;;5081731;28;20449;-74
2022/12/24 08:44:33;;;;;;;12.13;6.32;;;5.50;99.90;;;;;;5087370;28;20035;-71
2022/12/24 08:46:59;;;;;;;16.23;7.95;;;5.60;99.90;;;;;;5108629;27;20023;-73
2022/12/24 08:49:25;;;;;;;13.25;7.22;;;5.60;99.90;;;;;;5089347;28;20074;-72
2022/12/24 08:51:51;;;;;;;16.85;8.43;;;5.50;99.90;;;;;;5102704;28;20055;-72
2022/12/24 08:54:16;;;;;;;12.82;7.22;;;5.50;99.90;;;;;;5111616;28;20415;-71
2022/12/24 08:56:42;;;;;;;15.77;8.20;;;5.50;99.90;;;;;;5088115;28;20031;-72
2022/12/24 08:59:10;;;;;;;16.33;7.97;;;5.50;99.90;;;;;;5088384;28;20078;-72
2022/12/24 09:01:37;;;;;;;13.30;7.15;;;5.50;99.90;;;;;;5088425;28;20032;-72
2022/12/24 09:04:03;;;;;;;16.17;7.60;;;5.50;99.90;;;;;;5093112;28;20043;-72
2022/12/24 09:06:31;;;;;;;14.60;7.90;;;5.50;99.90;;;;;;5093910;28;20469;-72
2022/12/24 09:08:57;;;;;;;15.80;7.93;;;5.60;99.90;;;;;;5084750;27;20023;-72
2022/12/24 09:11:23;;;;;;;17.30;8.40;;;5.60;99.90;;;;;;5097604;28;20027;-73
2022/12/24 09:13:48;;;;;;;14.18;8.13;;;5.60;99.90;;;;;;5086979;28;20023;-72
2022/12/24 09:16:15;;;;;;;12.35;7.38;;;5.50;99.90;;;;;;5069760;27;20407;-72
2022/12/24 09:18:41;;;;;;;12.85;7.43;;;5.50;99.90;;;;;;5083400;28;20032;-71
2022/12/24 09:21:13;;;;;;;50.50;26.67;;;5.50;99.90;;;;;;5101393;28;20421;-70
2022/12/24 09:23:40;;;;;;;29.35;13.68;;;7.30;99.90;;;;;;5061794;27;20040;-71
2022/12/24 09:26:25;;;;;;;17.42;9.50;;;6.90;99.90;;;;;;5096412;28;20063;-71
2022/12/24 09:28:52;;;;;;;21.40;9.68;;;6.40;99.90;;;;;;5083644;27;20023;-71
2022/12/24 09:31:20;;;;;;;16.02;9.05;;;6.20;99.90;;;;;;5090369;27;20114;-71
2022/12/24 09:33:50;;;;;;;17.67;8.73;;;6.00;99.90;;;;;;5085134;27;20027;-72
2022/12/24 09:36:17;;;;;;;14.70;7.70;;;5.80;99.90;;;;;;5104319;28;20024;-72
2022/12/24 09:38:43;;;;;;;18.83;8.63;;;5.80;99.90;;;;;;5069854;28;20032;-72
2022/12/24 09:41:34;;;;;;;18.55;8.63;;;5.70;99.90;;;;;;5082163;28;20142;-73
2022/12/24 09:44:11;;;;;;;20.02;8.88;;;5.70;99.90;;;;;;5081500;28;20035;-71
2022/12/24 09:46:52;;;;;;;18.60;8.95;;;5.70;99.90;;;;;;5082913;28;20038;-72
2022/12/24 09:49:22;;;;;;;20.10;8.85;;;5.70;99.90;;;;;;5087295;28;20475;-72
2022/12/24 09:52:03;;;;;;;18.70;8.77;;;5.70;99.90;;;;;;5086388;28;20035;-71
2022/12/24 09:54:33;;;;;;;16.63;8.50;;;5.70;99.90;;;;;;5086277;28;20020;-72
2022/12/24 09:57:07;;;;;;;19.08;9.23;;;5.60;99.90;;;;;;5067498;28;20024;-73
2022/12/24 09:59:42;;;;;;;18.17;9.10;;;5.70;99.90;;;;;;5083935;28;20028;-73
2022/12/24 10:02:12;;;;;;;20.42;9.63;;;5.60;99.90;;;;;;5088361;28;20134;-73
2022/12/24 10:04:37;;;;;;;19.95;9.55;;;5.60;99.90;;;;;;5089400;28;20077;-74
2022/12/24 10:07:15;;;;;;;24.15;10.07;;;5.70;99.90;;;;;;5090918;28;20395;-73
2022/12/24 10:10:20;;;;;;;21.60;10.00;;;5.70;99.90;;;;;;5090001;28;20039;-75
2022/12/24 10:13:17;;;;;;;24.77;11.40;;;5.70;99.90;;;;;;5068571;28;20119;-74
2022/12/24 10:16:10;;;;;;;19.65;10.55;;;5.70;99.90;;;;;;5088480;28;20944;-74
2022/12/24 10:19:01;;;;;;;137.63;76.05;;;5.70;99.90;;;;;;5086758;28;20464;-74
2022/12/24 10:21:34;;;;;;;91.90;47.75;;;7.10;99.90;;;;;;5098560;27;20046;-74
2022/12/24 10:24:09;;;;;;;60.95;32.97;;;8.50;99.90;;;;;;5086481;28;20099;-73
2022/12/24 10:27:00;;;;;;;27.63;17.73;;;8.70;99.90;;;;;;5110920;28;20062;-73
2022/12/24 10:29:29;;;;;;;20.65;11.70;;;8.70;99.90;;;;;;5092853;28;20048;-72
2022/12/24 10:32:06;;;;;;;430.17;195.48;;;8.70;99.90;;;;;;5086227;28;20073;-72
2022/12/24 10:34:38;;;;;;;257.70;99.65;;;8.80;99.90;;;;;;5083388;28;20035;-73
2022/12/24 10:37:05;;;;;;;27.80;14.07;;;8.80;99.90;;;;;;5093842;28;20450;-73
2022/12/24 10:39:31;;;;;;;20.63;11.52;;;8.80;99.90;;;;;;5107681;28;20032;-74
2022/12/24 10:42:00;;;;;;;15.18;8.57;;;7.90;99.90;;;;;;5090191;28;20104;-74
2022/12/24 10:44:30;;;;;;;14.25;8.77;;;7.40;99.90;;;;;;5114096;28;20026;-74
2022/12/24 10:46:56;;;;;;;14.43;8.90;;;7.10;99.90;;;;;;5113668;28;20371;-73
2022/12/24 10:49:59;;;;;;;12.98;8.63;;;6.80;99.90;;;;;;5088133;28;20036;-74
2022/12/24 10:52:32;;;;;;;15.35;8.70;;;6.70;99.90;;;;;;5040114;28;20131;-73
2022/12/24 10:55:06;;;;;;;124.82;38.85;;;6.60;99.90;;;;;;5106326;28;20213;-73
2022/12/24 10:57:32;;;;;;;27.42;13.32;;;6.90;99.90;;;;;;5106333;28;20054;-73
2022/12/24 10:59:58;;;;;;;142.00;46.25;;;6.70;99.90;;;;;;5085330;28;20027;-73
2022/12/24 11:02:37;;;;;;;32.00;15.77;;;6.70;99.90;;;;;;5084689;28;20116;-73
2022/12/24 11:05:28;;;;;;;27.23;12.00;;;7.20;99.90;;;;;;5087992;28;20039;-73
2022/12/24 11:08:13;;;;;;;15.52;8.75;;;6.90;99.90;;;;;;5103715;28;20027;-73
2022/12/24 11:10:52;;;;;;;16.35;9.48;;;6.60;99.90;;;;;;5089318;28;20027;-73
2022/12/24 11:13:46;;;;;;;15.77;9.18;;;6.50;99.90;;;;;;5101827;28;20659;-73
2022/12/24 11:16:52;;;;;;;14.98;9.07;;;6.40;99.90;;;;;;5081945;28;20466;-72
2022/12/24 11:19:25;;;;;;;16.50;8.82;;;6.30;99.90;;;;;;4978312;28;20625;-72
2022/12/24 11:22:03;;;;;;;18.30;9.77;;;6.30;99.90;;;;;;5066307;28;20039;-72
2022/12/24 11:24:34;;;;;;;16.08;9.15;;;6.30;99.90;;;;;;5103009;28;20599;-72
2022/12/24 11:27:27;;;;;;;17.98;9.73;;;6.30;99.90;;;;;;5102413;28;20061;-72
2022/12/24 11:30:20;;;;;;;19.23;10.13;;;6.30;99.90;;;;;;5086789;28;20503;-74
2022/12/24 11:33:10;;;;;;;20.40;11.13;;;6.30;99.90;;;;;;5065967;28;20034;-73
2022/12/24 11:35:44;;;;;;;21.25;11.15;;;6.30;99.90;;;;;;5086757;28;20035;-73
2022/12/24 11:38:16;;;;;;;20.80;10.05;;;6.30;99.90;;;;;;5085085;28;20687;-72
2022/12/24 11:40:48;;;;;;;22.40;11.80;;;6.30;99.90;;;;;;5083480;28;20097;-73
2022/12/24 11:43:19;;;;;;;18.58;10.77;;;6.30;99.90;;;;;;5099848;28;20106;-73
2022/12/24 11:45:56;;;;;;;20.20;11.20;;;6.30;99.90;;;;;;5085743;28;20027;-73
2022/12/24 11:48:31;;;;;;;19.30;10.25;;;6.40;99.90;;;;;;5086942;28;20097;-74
2022/12/24 11:51:02;;;;;;;22.17;11.30;;;6.40;99.90;;;;;;5105810;28;20049;-74
2022/12/24 11:53:44;;;;;;;25.25;11.23;;;6.80;99.90;;;;;;5083814;28;20027;-73
2022/12/24 11:56:28;;;;;;;;;;;6.70;99.90;;;;;;5100275;28;20077;-75
2022/12/24 11:59:00;;;;;;;21.50;11.18;;;6.60;99.90;;;;;;5083773;28;19999;-76
2022/12/24 12:01:34;;;;;;;21.38;10.73;;;6.60;99.90;;;;;;5073785;28;20023;-74
2022/12/24 12:04:05;;;;;;;22.35;10.68;;;6.60;99.90;;;;;;5099564;28;20535;-73
2022/12/24 12:06:54;;;;;;;23.70;10.68;;;6.60;99.90;;;;;;5083376;28;20514;-73
2022/12/24 12:09:30;;;;;;;22.63;10.18;;;6.60;99.90;;;;;;5086637;28;20303;-75
2022/12/24 12:12:06;;;;;;;26.35;11.48;;;6.60;99.90;;;;;;5088582;28;20443;-72
2022/12/24 12:14:59;;;;;;;20.98;10.88;;;6.60;99.90;;;;;;5085122;28;20103;-74
2022/12/24 12:17:35;;;;;;;25.52;12.18;;;6.60;99.90;;;;;;5062500;28;20040;-72
2022/12/24 12:20:09;;;;;;;23.38;12.13;;;6.60;99.90;;;;;;5088228;28;20399;-73
2022/12/24 12:22:44;;;;;;;30.92;13.63;;;6.60;99.90;;;;;;5072093;28;20032;-73
2022/12/24 12:25:37;;;;;;;31.05;14.48;;;6.80;99.90;;;;;;5085311;28;20035;-72
2022/12/24 12:28:10;;;;;;;31.13;13.82;;;6.90;99.90;;;;;;5067750;28;20573;-73
2022/12/24 12:30:39;;;;;;;34.92;16.42;;;7.00;99.90;;;;;;5093640;28;20030;-73
2022/12/24 12:33:25;;;;;;;27.48;14.00;;;7.00;99.90;;;;;;5083962;27;20023;-72
2022/12/24 12:35:53;;;;;;;31.13;14.35;;;7.10;99.90;;;;;;5088797;28;20024;-73
2022/12/24 12:38:21;;;;;;;27.77;13.27;;;7.20;99.90;;;;;;5088114;28;20180;-74
2022/12/24 12:41:13;;;;;;;24.52;12.13;;;7.30;99.90;;;;;;5089763;28;20027;-73
2022/12/24 12:43:47;;;;;;;29.65;12.55;;;7.30;99.90;;;;;;5090270;28;20034;-73
2022/12/24 12:46:55;;;;;;;29.00;12.13;;;7.30;99.90;;;;;;5087812;28;20077;-72
2022/12/24 12:49:52;;;;;;;22.65;12.43;;;7.30;99.90;;;;;;5080847;28;20789;-71
2022/12/24 12:52:37;;;;;;;35.20;13.43;;;7.30;99.90;;;;;;5062821;28;20020;-71
2022/12/24 12:55:44;;;;;;;22.33;11.20;;;7.30;99.90;;;;;;5078999;28;20391;-74
2022/12/24 12:58:22;;;;;;;21.25;11.60;;;7.20;99.90;;;;;;5093822;27;20372;-74
2022/12/24 13:00:53;;;;;;;21.52;11.02;;;7.20;99.90;;;;;;5089009;27;20093;-72
2022/12/24 13:03:38;;;;;;;;;;;7.30;99.90;;;;;;5095206;27;20111;-73
2022/12/24 13:06:21;;;;;;;19.92;10.65;;;7.30;99.90;;;;;;5091253;27;19908;-73
2022/12/24 13:09:12;;;;;;;20.00;10.43;;;7.30;99.90;;;;;;5099701;28;20035;-72
2022/12/24 13:11:55;;;;;;;20.17;10.85;;;7.30;99.90;;;;;;5065186;28;20028;-74